Airfield :
LOGIN :

Register | Disclaimer

   EN    FR    IT 

 










Legend :    VFR   Marginal VFR   IFR   Intensive IFR   Very Intensive IFR
Visi :
Ceiling :
>= 8 km
>= 3000ft
5 to 8 km
1000 to 3000 ft
1500m to 5 km
500 to 1000 ft
800 to 1500m
200 to 500 ft
< 800m
< 200 ft
Symbols :   Thunderstorms  Fog  Heavy snow  Heavy precipitations  Wind > 20 kt
SIGMETs :     Misc.  Thunderstorms  Icing  Turbulence  Mountain Waves  Volcanic Ashes






- Airport Elevation : 157 ft
- IATA code : SXF


EDDB - Berlin Schönefeld

CURRENT METAR :
  • 161220Z 15005KT 9999 BKN030 07/05 Q1009 NOSIG

EXPIRED METARs :
  • 161150Z 15005KT 9999 BKN030 07/05 Q1009 NOSIG
  • 161120Z 16006KT 9999 -RA BKN046 07/04 Q1009 NOSIG
  • 161050Z 16007KT 9999 -RA BKN048 07/04 Q1009 NOSIG
  • 161020Z 16010KT 9999 -RA SCT036 07/04 Q1010 NOSIG
  • 160950Z 17008KT 9999 FEW034 06/04 Q1010 NOSIG
  • 160920Z 18007KT 9999 -RA SCT034 06/04 Q1010 NOSIG

TAF TAF EDDB
Valid from the 16 at 12:00 until the 17 at 12:00 UTC


161100Z 1612/1712 17009KT 9999 SCT040



MET'MAP, your aeronautical weather chart ! - Copyright ORBIFLY December 2007 - Disclaimer

ORBIFLY MET'MAP TEAM :

Programming & Development : Alexandra Zaïnal
Concept & original design : Baudouin d'Aumeries
Assistance for programming : Marc-Olivier Méhu
Technical & hardware support : Manuel Goepfert

Contact : metmap@orbifly.com




SOURCES & CREDITS :

   NOAA